DLH341 EGKK-EGGP
Flight info
| Callsign | DLH341 |
|---|---|
| Flight time | N/A |
| Altitude | 28000 |
| Route | LAM N57 WELIN T420 ELVOS |
| Aircraft | A321/M-DE2E3FGIJ1LORVWXYZ/HB2 |
Departure
| Time | 2026-04-16 22:13 |
|---|---|
| Airport | London Gatwick Airport (EGKK) |
Arrival
| Time | N/A |
|---|---|
| Airport | Liverpool John Lennon Airport (EGGP) |
| Time | Latitude | Longitude | Altitude | Speed | Heading |
|---|---|---|---|---|---|
| 2026-04-16 21:42 | 51.15995 | -0.17064 | 204 ft | 0 kts | 322° |
| 2026-04-16 22:02 | 51.15981 | -0.17047 | 213 ft | 4 kts | 322° |
| 2026-04-16 22:02 | 51.15961 | -0.17022 | 215 ft | 4 kts | 331° |
| 2026-04-16 22:03 | 51.15938 | -0.17013 | 211 ft | 4 kts | 21° |
| 2026-04-16 22:03 | 51.15916 | -0.17035 | 214 ft | 4 kts | 35° |
| 2026-04-16 22:03 | 51.15893 | -0.17057 | 213 ft | 4 kts | 26° |
| 2026-04-16 22:03 | 51.15868 | -0.17072 | 212 ft | 4 kts | 13° |
| 2026-04-16 22:04 | 51.15843 | -0.17080 | 212 ft | 4 kts | 5° |
| 2026-04-16 22:04 | 51.15816 | -0.17081 | 212 ft | 4 kts | 354° |
| 2026-04-16 22:04 | 51.15804 | -0.17079 | 209 ft | 0 kts | 349° |
| 2026-04-16 22:06 | 51.15808 | -0.17157 | 212 ft | 10 kts | 266° |
| 2026-04-16 22:06 | 51.15793 | -0.17279 | 208 ft | 12 kts | 257° |
| 2026-04-16 22:07 | 51.15773 | -0.17419 | 209 ft | 14 kts | 257° |
| 2026-04-16 22:07 | 51.15758 | -0.17487 | 214 ft | 6 kts | 231° |
| 2026-04-16 22:07 | 51.15692 | -0.17489 | 212 ft | 12 kts | 169° |
| 2026-04-16 22:07 | 51.15598 | -0.17457 | 204 ft | 15 kts | 167° |
| 2026-04-16 22:08 | 51.15484 | -0.17417 | 204 ft | 18 kts | 168° |
| 2026-04-16 22:08 | 51.15355 | -0.17371 | 208 ft | 14 kts | 167° |
| 2026-04-16 22:08 | 51.15254 | -0.17327 | 211 ft | 16 kts | 147° |
| 2026-04-16 22:08 | 51.15255 | -0.17169 | 204 ft | 15 kts | 77° |
| 2026-04-16 22:09 | 51.15278 | -0.16999 | 209 ft | 16 kts | 78° |
| 2026-04-16 22:09 | 51.15297 | -0.16856 | 206 ft | 0 kts | 78° |
| 2026-04-16 22:12 | 51.15297 | -0.16855 | 204 ft | 1 kts | 81° |
| 2026-04-16 22:12 | 51.15255 | -0.16818 | 208 ft | 11 kts | 166° |
| 2026-04-16 22:12 | 51.15165 | -0.16789 | 207 ft | 17 kts | 181° |
| 2026-04-16 22:12 | 51.15103 | -0.16934 | 203 ft | 22 kts | 260° |
| 2026-04-16 22:13 | 51.15023 | -0.17514 | 210 ft | 92 kts | 257° |
| 2026-04-16 22:13 | 51.14834 | -0.18887 | 210 ft | 158 kts | 257° |
| 2026-04-16 22:13 | 51.14609 | -0.20632 | 867 ft | 160 kts | 257° |
| 2026-04-16 22:13 | 51.14394 | -0.22375 | 1757 ft | 160 kts | 256° |
| 2026-04-16 22:14 | 51.14181 | -0.24111 | 2534 ft | 162 kts | 256° |
| 2026-04-16 22:14 | 51.13952 | -0.25935 | 3004 ft | 175 kts | 255° |
| 2026-04-16 22:14 | 51.13721 | -0.27931 | 3409 ft | 194 kts | 264° |
| 2026-04-16 22:14 | 51.13986 | -0.30188 | 3813 ft | 222 kts | 290° |
| 2026-04-16 22:15 | 51.14899 | -0.32097 | 3966 ft | 215 kts | 318° |
| 2026-04-16 22:15 | 51.16271 | -0.32986 | 4011 ft | 219 kts | 350° |
| 2026-04-16 22:15 | 51.17802 | -0.32690 | 4053 ft | 227 kts | 20° |
| 2026-04-16 22:15 | 51.19061 | -0.31201 | 4056 ft | 229 kts | 56° |
| 2026-04-16 22:16 | 51.19709 | -0.28899 | 4048 ft | 229 kts | 74° |
| 2026-04-16 22:16 | 51.20101 | -0.26459 | 3974 ft | 226 kts | 83° |
| 2026-04-16 22:16 | 51.20310 | -0.23975 | 3983 ft | 225 kts | 91° |
| 2026-04-16 22:16 | 51.20380 | -0.21503 | 4007 ft | 236 kts | 87° |
| 2026-04-16 22:17 | 51.20623 | -0.18757 | 4015 ft | 268 kts | 84° |
| 2026-04-16 22:17 | 51.20946 | -0.15735 | 4008 ft | 280 kts | 82° |
| 2026-04-16 22:17 | 51.21323 | -0.12633 | 4419 ft | 287 kts | 81° |
| 2026-04-16 22:17 | 51.21730 | -0.09503 | 4911 ft | 288 kts | 80° |
| 2026-04-16 22:18 | 51.22145 | -0.06382 | 4997 ft | 287 kts | 80° |
| 2026-04-16 22:18 | 51.22560 | -0.03271 | 5006 ft | 287 kts | 80° |
| 2026-04-16 22:18 | 51.22973 | -0.00158 | 5002 ft | 287 kts | 80° |
| 2026-04-16 22:18 | 51.23377 | 0.02923 | 4869 ft | 286 kts | 80° |
| 2026-04-16 22:19 | 51.23785 | 0.06075 | 4854 ft | 287 kts | 81° |
| 2026-04-16 22:19 | 51.24184 | 0.09192 | 4834 ft | 287 kts | 81° |
| 2026-04-16 22:19 | 51.24577 | 0.12261 | 4814 ft | 286 kts | 80° |
| 2026-04-16 22:19 | 51.24981 | 0.15408 | 4791 ft | 286 kts | 81° |
| 2026-04-16 22:20 | 51.25375 | 0.18475 | 4776 ft | 286 kts | 81° |
| 2026-04-16 22:20 | 51.25769 | 0.21585 | 4757 ft | 286 kts | 81° |
| 2026-04-16 22:20 | 51.26151 | 0.24758 | 4742 ft | 286 kts | 81° |
| 2026-04-16 22:20 | 51.26516 | 0.27873 | 4727 ft | 286 kts | 82° |
| 2026-04-16 22:21 | 51.26878 | 0.30999 | 4715 ft | 286 kts | 82° |
| 2026-04-16 22:21 | 51.27404 | 0.34056 | 4707 ft | 287 kts | 63° |
| 2026-04-16 22:21 | 51.28691 | 0.36395 | 4715 ft | 286 kts | 31° |
| 2026-04-16 22:21 | 51.30533 | 0.37411 | 4734 ft | 280 kts | 359° |
| 2026-04-16 22:22 | 51.32403 | 0.36918 | 4755 ft | 272 kts | 334° |
| 2026-04-16 22:22 | 51.34151 | 0.35766 | 5014 ft | 271 kts | 332° |
| 2026-04-16 22:22 | 51.35896 | 0.34599 | 5006 ft | 271 kts | 332° |
| 2026-04-16 22:22 | 51.37632 | 0.33437 | 5003 ft | 270 kts | 333° |
| 2026-04-16 22:23 | 51.39365 | 0.32280 | 5004 ft | 271 kts | 333° |
| 2026-04-16 22:23 | 51.41102 | 0.31119 | 4986 ft | 270 kts | 333° |
| 2026-04-16 22:23 | 51.42855 | 0.29945 | 5155 ft | 276 kts | 332° |
| 2026-04-16 22:23 | 51.44630 | 0.28743 | 5806 ft | 278 kts | 332° |
| 2026-04-16 22:24 | 51.46404 | 0.27537 | 5958 ft | 276 kts | 332° |
| 2026-04-16 22:24 | 51.48169 | 0.26341 | 5980 ft | 275 kts | 332° |
| 2026-04-16 22:24 | 51.49936 | 0.25146 | 5983 ft | 275 kts | 332° |
| 2026-04-16 22:24 | 51.51696 | 0.23955 | 5984 ft | 275 kts | 332° |
| 2026-04-16 22:25 | 51.53464 | 0.22757 | 5984 ft | 275 kts | 332° |
| 2026-04-16 22:25 | 51.55223 | 0.21564 | 5984 ft | 275 kts | 332° |
| 2026-04-16 22:25 | 51.56986 | 0.20367 | 5983 ft | 275 kts | 332° |
| 2026-04-16 22:25 | 51.58724 | 0.19185 | 5984 ft | 275 kts | 333° |
| 2026-04-16 22:26 | 51.60485 | 0.17986 | 5985 ft | 275 kts | 333° |
| 2026-04-16 22:26 | 51.62250 | 0.16779 | 5982 ft | 275 kts | 333° |
| 2026-04-16 22:26 | 51.63991 | 0.15507 | 5982 ft | 273 kts | 326° |
| 2026-04-16 22:26 | 51.65503 | 0.13695 | 6138 ft | 272 kts | 310° |
| 2026-04-16 22:27 | 51.66814 | 0.11509 | 7026 ft | 272 kts | 310° |
| 2026-04-16 22:27 | 51.68147 | 0.09316 | 7821 ft | 276 kts | 310° |
| 2026-04-16 22:27 | 51.69496 | 0.07112 | 8573 ft | 282 kts | 310° |
| 2026-04-16 22:27 | 51.70884 | 0.04845 | 9323 ft | 287 kts | 310° |
| 2026-04-16 22:28 | 51.72298 | 0.02525 | 10072 ft | 293 kts | 310° |
| 2026-04-16 22:28 | 51.73750 | 0.00137 | 10547 ft | 308 kts | 310° |
| 2026-04-16 22:28 | 51.75302 | -0.02424 | 10748 ft | 328 kts | 310° |
| 2026-04-16 22:28 | 51.76914 | -0.05082 | 11303 ft | 335 kts | 310° |
| 2026-04-16 22:29 | 51.78565 | -0.07797 | 11982 ft | 339 kts | 310° |
| 2026-04-16 22:29 | 51.80223 | -0.10521 | 12684 ft | 342 kts | 310° |
| 2026-04-16 22:29 | 51.81898 | -0.13280 | 13414 ft | 344 kts | 310° |
| 2026-04-16 22:29 | 51.83559 | -0.16021 | 14122 ft | 347 kts | 310° |
| 2026-04-16 22:30 | 51.85277 | -0.18863 | 14735 ft | 350 kts | 309° |
| 2026-04-16 22:30 | 51.86983 | -0.21693 | 15348 ft | 353 kts | 309° |
| 2026-04-16 22:30 | 51.88699 | -0.24549 | 15979 ft | 355 kts | 309° |
| 2026-04-16 22:30 | 51.90424 | -0.27424 | 16607 ft | 358 kts | 309° |
| 2026-04-16 22:31 | 51.92140 | -0.30285 | 17204 ft | 361 kts | 309° |
| 2026-04-16 22:31 | 51.93897 | -0.33213 | 17822 ft | 364 kts | 308° |
| 2026-04-16 22:31 | 51.95665 | -0.36164 | 18417 ft | 366 kts | 308° |
| 2026-04-16 22:31 | 51.97448 | -0.39144 | 18930 ft | 369 kts | 308° |
| 2026-04-16 22:32 | 51.99236 | -0.42141 | 19453 ft | 371 kts | 308° |
| 2026-04-16 22:32 | 52.01040 | -0.45170 | 19981 ft | 373 kts | 308° |
| 2026-04-16 22:32 | 52.02852 | -0.48212 | 20531 ft | 375 kts | 308° |
| 2026-04-16 22:32 | 52.04679 | -0.51278 | 21070 ft | 377 kts | 308° |
| 2026-04-16 22:33 | 52.06513 | -0.54353 | 21587 ft | 379 kts | 308° |
| 2026-04-16 22:33 | 52.08351 | -0.57445 | 22087 ft | 381 kts | 307° |
| 2026-04-16 22:33 | 52.10192 | -0.60553 | 22574 ft | 383 kts | 307° |
| 2026-04-16 22:33 | 52.12051 | -0.63701 | 23063 ft | 386 kts | 307° |
| 2026-04-16 22:34 | 52.13913 | -0.66854 | 23543 ft | 388 kts | 307° |
| 2026-04-16 22:34 | 52.15763 | -0.69987 | 23966 ft | 390 kts | 307° |
| 2026-04-16 22:34 | 52.17676 | -0.73226 | 24369 ft | 392 kts | 307° |
| 2026-04-16 22:34 | 52.19544 | -0.76399 | 24762 ft | 394 kts | 307° |
| 2026-04-16 22:35 | 52.21446 | -0.79639 | 25160 ft | 396 kts | 307° |
| 2026-04-16 22:35 | 52.23355 | -0.82888 | 25562 ft | 398 kts | 308° |
| 2026-04-16 22:35 | 52.25462 | -0.85884 | 25944 ft | 407 kts | 317° |
| 2026-04-16 22:35 | 52.27873 | -0.88404 | 26120 ft | 411 kts | 322° |
| 2026-04-16 22:36 | 52.30271 | -0.90767 | 26152 ft | 394 kts | 322° |
| 2026-04-16 22:36 | 52.32603 | -0.93049 | 26151 ft | 388 kts | 322° |
| 2026-04-16 22:36 | 52.34908 | -0.95322 | 26149 ft | 386 kts | 322° |
| 2026-04-16 22:36 | 52.37202 | -0.97603 | 26149 ft | 385 kts | 321° |
| 2026-04-16 22:37 | 52.39494 | -0.99894 | 26159 ft | 386 kts | 321° |
| 2026-04-16 22:37 | 52.41811 | -1.02224 | 26137 ft | 395 kts | 321° |
| 2026-04-16 22:37 | 52.43363 | -1.03786 | 25889 ft | 394 kts | 321° |
| 2026-04-16 22:37 | 52.45693 | -1.06128 | 25321 ft | 392 kts | 321° |
| 2026-04-16 22:38 | 52.48012 | -1.08458 | 24786 ft | 390 kts | 321° |
| 2026-04-16 22:38 | 52.50319 | -1.10775 | 24270 ft | 388 kts | 321° |
| 2026-04-16 22:38 | 52.52614 | -1.13084 | 23778 ft | 385 kts | 321° |
| 2026-04-16 22:38 | 52.54894 | -1.15387 | 23132 ft | 385 kts | 321° |
| 2026-04-16 22:39 | 52.57160 | -1.17674 | 22659 ft | 379 kts | 322° |
| 2026-04-16 22:39 | 52.59398 | -1.19923 | 22194 ft | 374 kts | 322° |
| 2026-04-16 22:39 | 52.61606 | -1.22140 | 21755 ft | 369 kts | 322° |
| 2026-04-16 22:39 | 52.63779 | -1.24327 | 21322 ft | 363 kts | 321° |
| 2026-04-16 22:40 | 52.65914 | -1.26484 | 20899 ft | 358 kts | 321° |
| 2026-04-16 22:40 | 52.68019 | -1.28617 | 20480 ft | 353 kts | 321° |
| 2026-04-16 22:40 | 52.70099 | -1.30731 | 20066 ft | 349 kts | 321° |
| 2026-04-16 22:40 | 52.72141 | -1.32811 | 19811 ft | 342 kts | 321° |
| 2026-04-16 22:41 | 52.74162 | -1.34875 | 19631 ft | 341 kts | 321° |
| 2026-04-16 22:41 | 52.76173 | -1.36930 | 19405 ft | 339 kts | 321° |
| 2026-04-16 22:41 | 52.78173 | -1.38975 | 19142 ft | 337 kts | 322° |
| 2026-04-16 22:41 | 52.80164 | -1.41008 | 18901 ft | 336 kts | 322° |
| 2026-04-16 22:42 | 52.82147 | -1.43034 | 18654 ft | 334 kts | 322° |
| 2026-04-16 22:42 | 52.84120 | -1.45054 | 18408 ft | 333 kts | 322° |
| 2026-04-16 22:42 | 52.86087 | -1.47069 | 18155 ft | 332 kts | 322° |
| 2026-04-16 22:42 | 52.88046 | -1.49077 | 17905 ft | 331 kts | 322° |
| 2026-04-16 22:43 | 52.90000 | -1.51085 | 17661 ft | 329 kts | 322° |
| 2026-04-16 22:43 | 52.91945 | -1.53089 | 17429 ft | 329 kts | 321° |
| 2026-04-16 22:43 | 52.93884 | -1.55085 | 17193 ft | 329 kts | 321° |
| 2026-04-16 22:43 | 52.95828 | -1.57084 | 16943 ft | 328 kts | 321° |
| 2026-04-16 22:44 | 52.97753 | -1.59068 | 16706 ft | 327 kts | 321° |
| 2026-04-16 22:44 | 52.99684 | -1.61064 | 16451 ft | 326 kts | 321° |
| 2026-04-16 22:44 | 53.01585 | -1.63034 | 16233 ft | 325 kts | 321° |
| 2026-04-16 22:44 | 53.03385 | -1.65237 | 15997 ft | 317 kts | 309° |
| 2026-04-16 22:45 | 53.04764 | -1.68009 | 15767 ft | 307 kts | 295° |
| 2026-04-16 22:45 | 53.05674 | -1.71163 | 15545 ft | 298 kts | 282° |
| 2026-04-16 22:45 | 53.06125 | -1.74483 | 15333 ft | 293 kts | 274° |
| 2026-04-16 22:45 | 53.06442 | -1.77819 | 15120 ft | 292 kts | 274° |
| 2026-04-16 22:46 | 53.06763 | -1.81154 | 14913 ft | 292 kts | 274° |
| 2026-04-16 22:46 | 53.07081 | -1.84482 | 14690 ft | 291 kts | 274° |
| 2026-04-16 22:46 | 53.07398 | -1.87816 | 14479 ft | 291 kts | 274° |
| 2026-04-16 22:46 | 53.07711 | -1.91125 | 14271 ft | 290 kts | 274° |
| 2026-04-16 22:47 | 53.08026 | -1.94429 | 14065 ft | 288 kts | 274° |
| 2026-04-16 22:47 | 53.08339 | -1.97724 | 13849 ft | 288 kts | 274° |
| 2026-04-16 22:47 | 53.08649 | -2.01005 | 13630 ft | 287 kts | 274° |
| 2026-04-16 22:47 | 53.08956 | -2.04281 | 13435 ft | 286 kts | 274° |
| 2026-04-16 22:48 | 53.09262 | -2.07547 | 13213 ft | 285 kts | 274° |
| 2026-04-16 22:48 | 53.09566 | -2.10802 | 13004 ft | 284 kts | 274° |
| 2026-04-16 22:48 | 53.09867 | -2.14044 | 12800 ft | 283 kts | 274° |
| 2026-04-16 22:48 | 53.10166 | -2.17277 | 12596 ft | 283 kts | 274° |